createdAt,value
2022-10-24T00:03:31.996Z,13.20
2022-10-24T00:08:26.566Z,13.20
2022-10-24T00:13:20.273Z,13.30
2022-10-24T00:18:13.896Z,13.20
2022-10-24T00:23:07.309Z,13.10
2022-10-24T00:28:01.896Z,13.20
2022-10-24T00:32:55.403Z,13.10
2022-10-24T00:37:48.671Z,13.20
2022-10-24T00:42:41.982Z,12.90
2022-10-24T00:47:36.854Z,13.00
2022-10-24T00:52:36.123Z,13.00
2022-10-24T00:57:36.940Z,12.80
2022-10-24T01:02:30.232Z,12.80
2022-10-24T01:07:41.289Z,12.80
2022-10-24T01:12:47.871Z,12.90
2022-10-24T01:17:51.543Z,13.00
2022-10-24T01:23:05.393Z,13.00
2022-10-24T01:28:07.746Z,13.10
2022-10-24T01:33:09.057Z,13.00
2022-10-24T01:38:12.546Z,12.90
2022-10-24T01:43:13.254Z,12.90
2022-10-24T01:48:14.689Z,12.80
2022-10-24T01:53:11.120Z,12.80
2022-10-24T01:58:04.392Z,12.80
2022-10-24T02:03:05.850Z,12.90
2022-10-24T02:08:07.916Z,12.90
2022-10-24T02:13:08.190Z,12.80
2022-10-24T02:18:02.638Z,12.90
2022-10-24T02:23:06.580Z,12.80
2022-10-24T02:28:09.306Z,12.70
2022-10-24T02:33:02.686Z,12.80
2022-10-24T02:38:04.210Z,12.80
2022-10-24T02:43:00.140Z,12.80
2022-10-24T02:47:59.865Z,12.90
2022-10-24T02:52:53.390Z,13.00
2022-10-24T02:57:48.071Z,13.00
2022-10-24T03:02:41.380Z,13.00
2022-10-24T03:07:34.631Z,13.00
2022-10-24T03:12:27.958Z,13.00
2022-10-24T03:17:23.329Z,13.10
2022-10-24T03:22:16.621Z,13.10
2022-10-24T03:27:09.876Z,13.10
2022-10-24T03:32:03.304Z,13.10
2022-10-24T03:37:00.100Z,13.00
2022-10-24T03:41:53.387Z,13.00
2022-10-24T03:46:46.737Z,13.00
2022-10-24T03:51:40.082Z,13.00
2022-10-24T03:56:34.735Z,13.00
2022-10-24T04:01:29.838Z,13.00
2022-10-24T04:06:23.123Z,13.10
2022-10-24T04:11:16.348Z,13.10
2022-10-24T04:16:11.141Z,13.00
2022-10-24T04:21:04.936Z,13.00
2022-10-24T04:25:58.190Z,13.00
2022-10-24T04:30:56.294Z,13.10
2022-10-24T04:35:54.901Z,13.20
2022-10-24T04:40:49.588Z,13.20
2022-10-24T04:45:42.955Z,13.20
2022-10-24T04:50:36.505Z,13.30
2022-10-24T04:55:31.352Z,13.30
2022-10-24T05:00:24.654Z,13.30
2022-10-24T05:05:18.418Z,13.20
2022-10-24T05:10:12.521Z,13.30
2022-10-24T05:15:09.559Z,13.30
2022-10-24T05:20:03.212Z,13.30
2022-10-24T05:24:56.466Z,13.20
2022-10-24T05:29:49.711Z,13.20
2022-10-24T05:34:44.423Z,13.20
2022-10-24T05:39:37.774Z,13.30
2022-10-24T05:44:31.283Z,13.30
2022-10-24T05:49:24.856Z,13.40
2022-10-24T05:54:19.502Z,13.30
2022-10-24T05:59:12.815Z,13.20
2022-10-24T06:04:07.873Z,13.20
2022-10-24T06:09:05.293Z,13.20
2022-10-24T06:14:02.780Z,13.20
2022-10-24T06:18:56.066Z,13.20
2022-10-24T06:23:49.383Z,13.20
2022-10-24T06:28:43.115Z,13.10
2022-10-24T06:33:38.046Z,13.20
2022-10-24T06:38:31.286Z,13.20
2022-10-24T06:43:24.715Z,13.20
2022-10-24T06:48:18.173Z,13.30
2022-10-24T06:53:12.807Z,13.30
2022-10-24T06:58:06.903Z,13.30
2022-10-24T07:03:00.362Z,13.30
2022-10-24T07:07:53.602Z,13.40
2022-10-24T07:12:48.358Z,13.40
2022-10-24T07:17:43.013Z,13.40
2022-10-24T07:22:37.582Z,13.50
2022-10-24T07:27:30.789Z,13.50
2022-10-24T07:32:28.556Z,13.50
2022-10-24T07:37:21.852Z,13.50
2022-10-24T07:42:18.780Z,13.50
2022-10-24T07:47:12.207Z,13.50
2022-10-24T07:52:07.223Z,13.60
2022-10-24T07:57:00.452Z,13.60
2022-10-24T08:01:53.785Z,13.70
2022-10-24T08:06:47.100Z,13.80
2022-10-24T08:11:41.914Z,13.80
2022-10-24T08:16:35.340Z,13.90
2022-10-24T08:21:29.893Z,13.90
2022-10-24T08:26:26.295Z,13.90
2022-10-24T08:31:23.283Z,13.90
2022-10-24T08:36:24.138Z,13.90
2022-10-24T08:41:31.932Z,13.90
2022-10-24T08:46:50.340Z,14.00
2022-10-24T08:51:48.816Z,13.90
2022-10-24T08:56:42.411Z,13.90
2022-10-24T09:01:45.911Z,13.90
2022-10-24T09:06:39.476Z,13.90
2022-10-24T09:11:46.271Z,13.90
2022-10-24T09:16:42.442Z,13.90
2022-10-24T09:21:36.408Z,13.90
2022-10-24T09:26:34.184Z,14.00
2022-10-24T09:31:28.890Z,14.00
2022-10-24T09:36:25.465Z,14.10
2022-10-24T09:41:24.220Z,14.00
2022-10-24T09:46:20.741Z,14.00
2022-10-24T09:51:26.204Z,14.00
2022-10-24T09:56:19.494Z,14.00
2022-10-24T10:01:22.827Z,14.00
2022-10-24T10:06:19.384Z,14.00
2022-10-24T10:11:14.368Z,14.00
2022-10-24T10:16:10.720Z,14.00
2022-10-24T10:21:15.768Z,14.00
2022-10-24T10:26:20.436Z,14.10
2022-10-24T10:31:22.187Z,14.00
2022-10-24T10:36:22.086Z,14.10
2022-10-24T10:41:44.223Z,14.10
2022-10-24T10:46:48.646Z,14.10
2022-10-24T10:51:49.189Z,14.00
2022-10-24T10:56:53.129Z,13.90
2022-10-24T11:01:58.040Z,13.80
2022-10-24T11:07:02.615Z,13.80
2022-10-24T11:12:13.323Z,13.80
2022-10-24T11:17:17.744Z,13.70
2022-10-24T11:22:22.142Z,13.80
2022-10-24T11:27:26.531Z,13.90
2022-10-24T11:32:28.189Z,13.90
2022-10-24T11:37:32.046Z,14.00
2022-10-24T11:42:34.873Z,14.00
2022-10-24T11:47:59.609Z,13.90
2022-10-24T11:52:58.257Z,13.80
2022-10-24T11:57:59.469Z,13.80
2022-10-24T12:03:34.805Z,13.80
2022-10-24T12:09:06.525Z,13.70
2022-10-24T12:15:03.344Z,13.70
2022-10-24T12:19:57.821Z,13.70
2022-10-24T12:25:06.950Z,13.60
2022-10-24T12:30:18.198Z,13.60
2022-10-24T12:35:54.603Z,13.70
2022-10-24T12:40:58.895Z,13.70
2022-10-24T12:45:55.934Z,13.70
2022-10-24T12:51:06.720Z,13.80
2022-10-24T12:56:41.392Z,13.80
2022-10-24T13:01:59.949Z,13.80
2022-10-24T13:08:03.394Z,13.90
2022-10-24T13:13:39.539Z,13.90
2022-10-24T13:19:13.481Z,13.90
2022-10-24T13:24:53.102Z,13.80
2022-10-24T13:30:47.342Z,13.80
2022-10-24T13:36:31.838Z,13.70
2022-10-24T13:42:21.434Z,13.70
2022-10-24T13:53:30.530Z,13.90
2022-10-24T13:59:05.322Z,13.90
2022-10-24T14:05:03.062Z,13.90
2022-10-24T14:10:31.120Z,14.00
2022-10-24T14:15:50.990Z,14.00
2022-10-24T14:21:09.295Z,13.90
2022-10-24T14:26:47.616Z,13.90
2022-10-24T14:38:15.462Z,13.80
2022-10-24T14:48:55.004Z,13.70
2022-10-24T14:54:12.425Z,13.70
2022-10-24T14:59:51.054Z,13.70
2022-10-24T15:06:04.916Z,13.70
2022-10-24T15:11:48.968Z,13.70
2022-10-24T15:17:02.817Z,13.70
2022-10-24T15:21:56.969Z,13.70
2022-10-24T15:26:58.539Z,13.70
2022-10-24T15:31:55.280Z,13.60
2022-10-24T15:36:57.579Z,13.50
2022-10-24T15:42:37.586Z,13.50
2022-10-24T15:48:02.742Z,13.50
2022-10-24T15:53:06.810Z,13.40
2022-10-24T15:58:53.902Z,13.40
2022-10-24T16:09:58.545Z,13.40
2022-10-24T16:14:57.476Z,13.30
2022-10-24T16:20:42.131Z,13.30
2022-10-24T16:25:38.965Z,13.30
2022-10-24T16:31:19.168Z,13.30
2022-10-24T16:37:13.326Z,13.30
2022-10-24T16:42:08.351Z,13.30
2022-10-24T16:47:21.465Z,13.20
2022-10-24T16:52:21.981Z,13.30
2022-10-24T16:57:15.493Z,13.20
2022-10-24T17:02:10.109Z,13.20
2022-10-24T17:07:04.438Z,13.20
2022-10-24T17:12:00.073Z,13.20
2022-10-24T17:16:53.445Z,13.20
2022-10-24T17:21:50.088Z,13.10
2022-10-24T17:26:44.105Z,13.10
2022-10-24T17:31:39.059Z,13.00
2022-10-24T17:36:40.880Z,13.00
2022-10-24T17:41:39.241Z,13.00
2022-10-24T17:46:33.503Z,13.00
2022-10-24T17:51:32.393Z,13.00
2022-10-24T17:56:25.938Z,13.00
2022-10-24T18:01:20.634Z,12.70
2022-10-24T18:06:15.897Z,12.50
2022-10-24T18:11:11.932Z,12.40
2022-10-24T18:16:08.832Z,12.50
2022-10-24T18:26:53.590Z,12.40
2022-10-24T18:31:47.393Z,12.30
2022-10-24T18:36:42.759Z,12.20
2022-10-24T18:41:48.486Z,12.10
2022-10-24T18:46:51.269Z,12.20
2022-10-24T18:52:18.287Z,12.20
2022-10-24T18:57:23.555Z,11.90
2022-10-24T19:02:34.367Z,11.80
2022-10-24T19:07:33.148Z,11.90
2022-10-24T19:12:46.795Z,11.80
2022-10-24T19:18:06.594Z,11.70
2022-10-24T19:23:09.622Z,11.60
2022-10-24T19:28:19.312Z,11.60
2022-10-24T19:33:22.997Z,11.50
2022-10-24T19:38:19.274Z,11.60
2022-10-24T19:43:12.843Z,11.60
2022-10-24T19:48:09.398Z,11.50
2022-10-24T19:58:04.011Z,11.70
2022-10-24T20:03:05.809Z,11.60
2022-10-24T20:08:03.720Z,11.70
2022-10-24T20:12:57.090Z,11.60
2022-10-24T20:17:52.509Z,11.50
2022-10-24T20:22:46.013Z,11.30
2022-10-24T20:27:40.870Z,11.20
2022-10-24T20:32:34.205Z,11.20
2022-10-24T20:37:27.456Z,11.40
2022-10-24T20:42:22.244Z,11.40
2022-10-24T20:47:16.946Z,11.40
2022-10-24T20:52:13.172Z,11.30
2022-10-24T20:57:06.468Z,11.20
2022-10-24T21:01:59.938Z,11.10
2022-10-24T21:06:54.712Z,11.20
2022-10-24T21:11:48.699Z,11.30
2022-10-24T21:16:41.975Z,11.10
2022-10-24T21:21:35.246Z,11.00
2022-10-24T21:26:29.902Z,11.10
2022-10-24T21:31:25.033Z,10.90
2022-10-24T21:36:21.330Z,10.80
2022-10-24T21:41:14.932Z,11.00
2022-10-24T21:46:13.189Z,11.20
2022-10-24T21:51:10.209Z,11.20
2022-10-24T21:56:04.924Z,11.00
2022-10-24T22:00:58.319Z,10.80
2022-10-24T22:05:58.016Z,10.80
2022-10-24T22:10:59.603Z,10.90
2022-10-24T22:15:52.866Z,11.00
2022-10-24T22:20:47.832Z,11.00
2022-10-24T22:25:42.721Z,11.00
2022-10-24T22:30:35.945Z,11.10
2022-10-24T22:35:30.508Z,11.10
2022-10-24T22:40:28.004Z,11.20
2022-10-24T22:45:24.630Z,11.10
2022-10-24T22:50:46.370Z,10.80
2022-10-24T22:55:55.562Z,10.90
2022-10-24T23:01:13.438Z,11.00
2022-10-24T23:06:17.847Z,10.80
2022-10-24T23:11:14.122Z,10.90
2022-10-24T23:16:25.681Z,11.00
2022-10-24T23:21:29.209Z,11.00
2022-10-24T23:26:36.074Z,11.00
2022-10-24T23:31:31.532Z,10.90
2022-10-24T23:36:27.978Z,11.00
2022-10-24T23:46:49.489Z,11.10
2022-10-24T23:51:51.693Z,11.10
2022-10-24T23:56:45.618Z,11.30
